Time;durP1;ratioP1;P1;durP2;ratioP2;P2;SDS_P1;SDS_P2;PMS_P1;PMS_P2;Temp;Humidity;BMP_temperature;BMP_pressure;BME280_temperature;BME280_humidity;BME280_pressure;Samples;Min_cycle;Max_cycle;Signal;HPM_P1;HPM_P2
2022/06/13 00:00:26;;;;;;;33.90;10.07;;;;;;;13.71;100.00;101744.38;5085441;28;20068;-80
2022/06/13 00:02:52;;;;;;;40.92;9.10;;;;;;;13.66;100.00;101732.81;5082764;28;20024;-80
2022/06/13 00:05:18;;;;;;;39.53;10.10;;;;;;;13.58;100.00;101733.44;5078679;28;20028;-80
2022/06/13 00:07:44;;;;;;;34.75;10.00;;;;;;;13.54;100.00;101737.41;5066645;28;20476;-80
2022/06/13 00:10:11;;;;;;;42.53;10.88;;;;;;;13.52;100.00;101744.91;5087473;28;20488;-80
2022/06/13 00:12:38;;;;;;;36.83;9.55;;;;;;;13.54;100.00;101737.41;5086918;28;20033;-80
2022/06/13 00:15:05;;;;;;;36.55;9.55;;;;;;;13.48;100.00;101730.50;5101192;28;20028;-80
2022/06/13 00:17:30;;;;;;;42.90;11.10;;;;;;;13.48;100.00;101725.00;5089120;28;20052;-80
2022/06/13 00:19:56;;;;;;;36.80;10.18;;;;;;;13.45;100.00;101719.75;5066174;28;20105;-80
2022/06/13 00:22:22;;;;;;;39.88;10.10;;;;;;;13.58;100.00;101711.41;5096001;28;20479;-80
2022/06/13 00:24:47;;;;;;;44.40;10.20;;;;;;;13.56;100.00;101702.38;5078742;28;20039;-81
2022/06/13 00:27:13;;;;;;;30.65;9.48;;;;;;;13.50;100.00;101708.38;5081209;28;20123;-81
2022/06/13 00:29:39;;;;;;;39.35;10.95;;;;;;;13.62;100.00;101712.91;5097299;28;20040;-81
2022/06/13 00:32:05;;;;;;;34.70;8.95;;;;;;;13.42;100.00;101704.34;5050857;28;20045;-81
2022/06/13 00:34:30;;;;;;;37.35;9.82;;;;;;;13.24;100.00;101717.59;5099968;28;20062;-81
2022/06/13 00:36:56;;;;;;;36.85;10.27;;;;;;;13.04;100.00;101699.88;5095167;28;20158;-81
2022/06/13 00:39:21;;;;;;;51.75;9.45;;;;;;;13.12;100.00;101701.16;5058198;28;20036;-81
2022/06/13 00:41:48;;;;;;;38.75;11.50;;;;;;;13.40;100.00;101703.59;5051661;28;20103;-81
2022/06/13 00:44:18;;;;;;;39.33;10.10;;;;;;;13.48;100.00;101711.25;5082264;28;20108;-81
2022/06/13 00:46:44;;;;;;;39.05;10.20;;;;;;;13.28;100.00;101704.53;5094056;28;20032;-81
2022/06/13 00:49:13;;;;;;;37.85;9.52;;;;;;;13.38;100.00;101694.59;5090356;28;20040;-81
2022/06/13 00:51:52;;;;;;;33.20;9.20;;;;;;;13.29;100.00;101700.75;5077125;28;20043;-81
2022/06/13 00:54:20;;;;;;;33.53;9.65;;;;;;;13.12;100.00;101696.56;5076582;28;20048;-81
2022/06/13 00:56:48;;;;;;;43.30;10.98;;;;;;;13.08;100.00;101692.28;5079613;28;20029;-81
2022/06/13 00:59:20;;;;;;;26.42;8.23;;;;;;;13.05;100.00;101703.50;5100326;28;20032;-81
2022/06/13 01:01:46;;;;;;;32.83;9.75;;;;;;;13.13;100.00;101705.69;5101545;28;20028;-80
2022/06/13 01:04:11;;;;;;;36.42;10.10;;;;;;;13.11;100.00;101707.69;5082184;28;20047;-79
2022/06/13 01:06:46;;;;;;;48.10;11.70;;;;;;;13.12;100.00;101695.66;5080816;28;20032;-80
2022/06/13 01:09:14;;;;;;;35.58;9.10;;;;;;;13.03;100.00;101700.88;5083569;28;20040;-80
2022/06/13 01:11:49;;;;;;;38.28;10.18;;;;;;;13.02;100.00;101696.38;5088498;28;20036;-81
2022/06/13 01:14:30;;;;;;;44.75;10.07;;;;;;;13.08;100.00;101700.53;5099137;28;20121;-80
2022/06/13 01:17:14;;;;;;;28.92;8.55;;;;;;;12.98;100.00;101696.72;5079529;28;20032;-80
2022/06/13 01:19:55;;;;;;;46.83;10.10;;;;;;;12.98;100.00;101693.97;5078825;28;20501;-80
2022/06/13 01:22:59;;;;;;;32.05;10.82;;;;;;;13.01;100.00;101693.75;5074484;28;20039;-80
2022/06/13 01:26:01;;;;;;;32.10;10.05;;;;;;;13.11;100.00;101702.19;5004621;28;20034;-80
2022/06/13 01:28:35;;;;;;;32.67;9.00;;;;;;;13.25;100.00;101699.25;5010796;28;20479;-81
2022/06/13 01:31:00;;;;;;;37.45;10.77;;;;;;;13.20;100.00;101695.97;5073307;28;20067;-80
2022/06/13 01:33:40;;;;;;;39.50;10.77;;;;;;;13.30;100.00;101694.28;5081577;28;20032;-80
2022/06/13 01:36:24;;;;;;;36.13;11.82;;;;;;;13.24;100.00;101684.59;5079013;28;20415;-80
2022/06/13 01:39:02;;;;;;;38.45;10.70;;;;;;;13.33;100.00;101679.41;5082899;28;20060;-81
2022/06/13 01:41:42;;;;;;;33.53;9.77;;;;;;;13.11;100.00;101693.94;5090752;28;20036;-81
2022/06/13 01:44:13;;;;;;;37.38;10.23;;;;;;;12.87;100.00;101689.28;5078568;28;20035;-80
2022/06/13 01:46:50;;;;;;;41.38;10.38;;;;;;;13.02;100.00;101693.63;5058612;28;20039;-80
2022/06/13 01:49:51;;;;;;;40.78;11.43;;;;;;;13.16;100.00;101702.69;5061496;28;20040;-80
2022/06/13 01:52:32;;;;;;;42.05;10.43;;;;;;;13.26;100.00;101700.13;5053518;28;20055;-79
2022/06/13 01:55:33;;;;;;;45.22;12.18;;;;;;;13.27;100.00;101690.88;5088651;28;20047;-80
2022/06/13 01:58:11;;;;;;;36.47;10.75;;;;;;;13.39;100.00;101673.44;5086175;28;20032;-80
2022/06/13 02:00:39;;;;;;;37.35;11.77;;;;;;;13.37;100.00;101672.69;5095833;28;20437;-80
2022/06/13 02:03:27;;;;;;;50.13;11.52;;;;;;;13.40;100.00;101669.72;5085996;28;20032;-80
2022/06/13 02:06:01;;;;;;;51.35;11.85;;;;;;;13.39;100.00;101674.31;5078464;28;20090;-80
2022/06/13 02:08:44;;;;;;;46.20;12.38;;;;;;;13.39;100.00;101677.06;5079927;28;20056;-80
2022/06/13 02:11:27;;;;;;;43.08;11.90;;;;;;;13.41;100.00;101661.34;5098416;28;20118;-80
2022/06/13 02:14:08;;;;;;;37.28;12.15;;;;;;;13.34;100.00;101670.19;5081161;28;20036;-80
2022/06/13 02:16:42;;;;;;;44.78;11.43;;;;;;;13.33;100.00;101671.16;5071848;28;20407;-80
2022/06/13 02:19:11;;;;;;;55.67;13.27;;;;;;;13.41;100.00;101671.44;5077508;28;20029;-81
2022/06/13 02:21:44;;;;;;;35.70;12.25;;;;;;;13.55;100.00;101673.13;5093216;28;20035;-81
2022/06/13 02:24:14;;;;;;;45.08;12.35;;;;;;;13.48;100.00;101677.34;5091675;28;20557;-80
2022/06/13 02:26:42;;;;;;;49.85;11.90;;;;;;;13.65;100.00;101673.28;5088813;28;20028;-81
2022/06/13 02:29:17;;;;;;;49.60;12.77;;;;;;;13.46;100.00;101669.22;5070401;28;20029;-81
2022/06/13 02:31:46;;;;;;;52.03;12.73;;;;;;;13.44;100.00;101675.84;5084850;28;20035;-81
2022/06/13 02:34:47;;;;;;;60.25;12.30;;;;;;;13.42;100.00;101675.97;5078468;28;20063;-81
2022/06/13 02:37:42;;;;;;;41.50;11.38;;;;;;;13.52;100.00;101668.72;5078308;28;20032;-81
2022/06/13 02:40:18;;;;;;;42.60;12.10;;;;;;;13.73;100.00;101679.06;5081041;28;20028;-80
2022/06/13 02:43:17;;;;;;;40.95;11.90;;;;;;;13.69;100.00;101672.94;5090114;28;20029;-79
2022/06/13 02:45:48;;;;;;;44.08;11.88;;;;;;;13.63;100.00;101673.41;5050110;28;20058;-79
2022/06/13 02:48:39;;;;;;;36.55;10.65;;;;;;;13.54;100.00;101672.25;5092981;28;20037;-80
2022/06/13 02:51:18;;;;;;;51.20;12.65;;;;;;;13.65;100.00;101665.91;5076617;28;20082;-79
2022/06/13 02:54:00;;;;;;;50.80;12.10;;;;;;;13.72;100.00;101675.41;5077499;28;20032;-80
2022/06/13 02:56:31;;;;;;;50.42;11.38;;;;;;;13.74;100.00;101676.19;5079719;28;20041;-81
2022/06/13 02:59:17;;;;;;;44.20;13.15;;;;;;;13.71;100.00;101678.31;5087999;28;20027;-79
2022/06/13 03:01:49;;;;;;;49.42;13.23;;;;;;;13.57;100.00;101669.25;5092521;28;20029;-81
2022/06/13 03:04:50;;;;;;;67.03;14.75;;;;;;;13.63;100.00;101661.53;5075174;28;20043;-80
2022/06/13 03:07:38;;;;;;;62.00;14.63;;;;;;;13.48;100.00;101663.59;5050977;28;20047;-80
2022/06/13 03:10:07;;;;;;;66.63;15.10;;;;;;;13.56;100.00;101672.13;5067339;28;20047;-81
2022/06/13 03:12:58;;;;;;;62.33;15.63;;;;;;;13.39;100.00;101666.06;5087546;28;20032;-80
2022/06/13 03:15:33;;;;;;;48.83;15.52;;;;;;;13.24;100.00;101659.84;5082758;28;20032;-81
2022/06/13 03:18:24;;;;;;;48.40;14.88;;;;;;;13.29;100.00;101658.63;5074497;28;20028;-81
2022/06/13 03:21:02;;;;;;;46.85;14.77;;;;;;;13.23;100.00;101663.63;5072545;28;20517;-81
2022/06/13 03:23:55;;;;;;;49.35;14.85;;;;;;;13.32;100.00;101673.06;5079495;28;20084;-81
2022/06/13 03:26:25;;;;;;;45.30;13.98;;;;;;;13.23;100.00;101673.72;5077405;28;20036;-81
2022/06/13 03:29:00;;;;;;;37.80;13.45;;;;;;;13.20;100.00;101679.47;5086808;28;20483;-81
2022/06/13 03:31:37;;;;;;;49.20;14.25;;;;;;;13.06;100.00;101675.91;5081262;28;20032;-82
2022/06/13 03:34:09;;;;;;;44.67;13.25;;;;;;;13.21;100.00;101683.97;5080530;28;20029;-81
2022/06/13 03:36:49;;;;;;;40.75;14.77;;;;;;;13.31;100.00;101679.50;5062745;28;20049;-81
2022/06/13 03:39:36;;;;;;;40.70;14.20;;;;;;;13.23;100.00;101676.47;5069686;28;20039;-82
2022/06/13 03:42:02;;;;;;;41.03;13.68;;;;;;;13.18;100.00;101678.69;5077188;28;20025;-81
2022/06/13 03:44:33;;;;;;;45.88;13.93;;;;;;;13.14;100.00;101657.94;5092880;28;20042;-81
2022/06/13 03:47:11;;;;;;;57.75;14.45;;;;;;;13.14;100.00;101674.44;5082873;28;20032;-81
2022/06/13 03:49:46;;;;;;;51.85;14.38;;;;;;;13.15;100.00;101673.44;5083693;28;20527;-82
2022/06/13 03:52:13;;;;;;;51.47;13.65;;;;;;;13.06;100.00;101675.91;5084701;28;20032;-81
2022/06/13 03:54:53;;;;;;;51.72;14.05;;;;;;;13.04;100.00;101675.16;5073227;28;20028;-81
2022/06/13 03:57:27;;;;;;;38.25;13.90;;;;;;;12.94;100.00;101681.47;5064511;28;20446;-82
2022/06/13 04:00:02;;;;;;;53.40;14.75;;;;;;;13.21;100.00;101690.34;5093717;28;20020;-82
2022/06/13 04:02:31;;;;;;;53.78;14.02;;;;;;;13.02;100.00;101685.38;5077041;28;20024;-81
2022/06/13 04:04:57;;;;;;;42.90;14.73;;;;;;;13.08;100.00;101689.53;5062911;28;20486;-81
2022/06/13 04:07:25;;;;;;;50.90;14.38;;;;;;;13.06;100.00;101697.03;5092603;28;20036;-81
2022/06/13 04:09:57;;;;;;;46.25;14.77;;;;;;;13.14;100.00;101689.06;5095563;28;20032;-80
2022/06/13 04:12:32;;;;;;;45.08;15.57;;;;;;;13.31;100.00;101697.88;5077297;28;20052;-80
2022/06/13 04:15:17;;;;;;;37.17;12.95;;;;;;;13.18;100.00;101696.09;5083115;28;20085;-80
2022/06/13 04:18:35;;;;;;;53.30;16.65;;;;;;;13.17;100.00;101699.84;5090242;28;20028;-81
2022/06/13 04:21:16;;;;;;;41.00;13.23;;;;;;;13.19;100.00;101703.34;5089833;28;20045;-80
2022/06/13 04:24:21;;;;;;;39.97;13.23;;;;;;;13.17;100.00;101697.09;5077490;28;20032;-79
2022/06/13 04:27:12;;;;;;;44.13;13.52;;;;;;;13.26;100.00;101692.75;5040034;28;20502;-83
2022/06/13 04:29:57;;;;;;;45.97;13.85;;;;;;;13.36;100.00;101709.44;5081056;28;20028;-84
2022/06/13 04:32:29;;;;;;;44.65;14.63;;;;;;;13.40;100.00;101716.47;5085615;28;20024;-86
2022/06/13 04:34:57;;;;;;;37.10;12.20;;;;;;;13.46;100.00;101693.97;5079890;28;20502;-84
2022/06/13 04:37:24;;;;;;;38.20;11.57;;;;;;;13.48;100.00;101704.84;5079745;28;20035;-85
2022/06/13 04:39:57;;;;;;;48.50;12.82;;;;;;;13.50;100.00;101712.00;5043366;28;20088;-85
2022/06/13 04:42:24;;;;;;;40.17;12.75;;;;;;;13.52;100.00;101712.75;5061418;28;20052;-85
2022/06/13 04:44:51;;;;;;;53.22;13.35;;;;;;;13.60;100.00;101717.66;5047075;28;20033;-85
2022/06/13 04:47:18;;;;;;;48.05;13.63;;;;;;;13.60;100.00;101721.28;5079471;28;20027;-85
2022/06/13 04:49:54;;;;;;;37.72;12.45;;;;;;;13.57;100.00;101718.78;5055447;28;20032;-86
2022/06/13 04:52:34;;;;;;;47.17;14.95;;;;;;;13.63;100.00;101717.44;5100418;28;20035;-86
2022/06/13 04:55:17;;;;;;;45.80;14.48;;;;;;;13.72;100.00;101716.69;5080278;28;20032;-86
2022/06/13 04:57:42;;;;;;;49.88;14.65;;;;;;;13.77;100.00;101717.22;5085511;28;20028;-86
2022/06/13 05:00:10;;;;;;;45.55;13.63;;;;;;;13.74;100.00;101719.31;5059319;28;20110;-85
2022/06/13 05:02:43;;;;;;;36.10;14.02;;;;;;;13.79;100.00;101725.38;5063391;28;20053;-83
2022/06/13 05:05:24;;;;;;;43.85;13.77;;;;;;;13.73;100.00;101732.22;5087122;28;20032;-83
2022/06/13 05:07:49;;;;;;;53.03;14.30;;;;;;;13.72;100.00;101727.69;5091166;28;20033;-83
2022/06/13 05:10:19;;;;;;;43.67;14.00;;;;;;;13.73;100.00;101728.59;5075409;28;20135;-82
2022/06/13 05:12:45;;;;;;;49.88;14.98;;;;;;;13.70;100.00;101737.97;5079079;28;20028;-83
2022/06/13 05:15:20;;;;;;;55.05;15.73;;;;;;;13.66;100.00;101738.31;5083198;28;20039;-83
2022/06/13 05:18:10;;;;;;;50.15;14.02;;;;;;;13.60;100.00;101729.53;5098407;28;20035;-83
2022/06/13 05:20:36;;;;;;;60.15;14.95;;;;;;;13.95;100.00;101736.03;5090016;28;20028;-83
2022/06/13 05:23:36;;;;;;;46.20;14.30;;;;;;;14.39;100.00;101731.56;5070688;28;20088;-83
2022/06/13 05:26:03;;;;;;;42.58;15.57;;;;;;;14.61;100.00;101733.50;5091043;28;20027;-83
2022/06/13 05:28:33;;;;;;;51.40;14.35;;;;;;;14.82;100.00;101735.47;5064683;28;20020;-83
2022/06/13 05:31:05;;;;;;;46.50;14.35;;;;;;;14.76;100.00;101741.47;5091098;28;20384;-83
2022/06/13 05:33:35;;;;;;;54.08;14.82;;;;;;;15.05;100.00;101742.72;5090379;28;20067;-83
2022/06/13 05:36:07;;;;;;;56.45;15.65;;;;;;;15.35;100.00;101741.09;5099863;28;20054;-83
2022/06/13 05:38:36;;;;;;;67.60;16.97;;;;;;;15.58;100.00;101744.66;5084332;28;20074;-82
2022/06/13 05:41:02;;;;;;;53.22;16.67;;;;;;;15.41;100.00;101747.97;5074066;28;20073;-83
2022/06/13 05:43:27;;;;;;;62.40;16.40;;;;;;;15.57;100.00;101742.88;5076152;28;20115;-84
2022/06/13 05:45:53;;;;;;;58.60;17.58;;;;;;;15.92;100.00;101746.38;5044449;28;20039;-84
2022/06/13 05:48:21;;;;;;;62.05;17.23;;;;;;;16.14;100.00;101745.38;5068704;28;20042;-84
2022/06/13 05:50:47;;;;;;;58.05;18.02;;;;;;;16.30;100.00;101751.28;5091719;28;20032;-83
2022/06/13 05:53:16;;;;;;;54.42;17.02;;;;;;;16.21;100.00;101754.00;5088715;28;20036;-84
2022/06/13 05:55:42;;;;;;;64.35;17.92;;;;;;;16.30;100.00;101751.28;5085990;28;20103;-85
2022/06/13 05:58:13;;;;;;;56.20;17.05;;;;;;;16.20;100.00;101758.66;5095743;28;20093;-85
2022/06/13 06:00:46;;;;;;;53.92;16.38;;;;;;;16.33;100.00;101769.47;5052906;28;20025;-84
2022/06/13 06:03:11;;;;;;;63.55;18.60;;;;;;;16.70;100.00;101769.81;5078860;28;20020;-85
2022/06/13 06:05:41;;;;;;;61.78;16.17;;;;;;;16.68;100.00;101769.09;5063259;28;20044;-85
2022/06/13 06:08:15;;;;;;;61.85;16.00;;;;;;;16.70;100.00;101767.03;5062857;28;20483;-85
2022/06/13 06:10:42;;;;;;;51.03;15.38;;;;;;;17.32;100.00;101774.41;5061915;28;20028;-84
2022/06/13 06:13:08;;;;;;;51.80;14.65;;;;;;;17.36;100.00;101771.19;5099109;28;20070;-84
2022/06/13 06:15:33;;;;;;;55.83;14.95;;;;;;;17.58;100.00;101772.84;5084844;28;20040;-84
2022/06/13 06:17:59;;;;;;;55.95;13.52;;;;;;;17.74;100.00;101788.88;5046656;28;20073;-85
2022/06/13 06:20:24;;;;;;;63.78;14.18;;;;;;;17.98;100.00;101790.34;5054211;28;20036;-86
2022/06/13 06:22:50;;;;;;;49.85;13.52;;;;;;;18.23;100.00;101780.53;5076919;28;20039;-86
2022/06/13 06:25:15;;;;;;;49.20;14.50;;;;;;;18.33;100.00;101784.19;5042525;28;20048;-86
2022/06/13 06:27:41;;;;;;;40.15;12.60;;;;;;;18.55;100.00;101773.75;5064364;28;20039;-85
2022/06/13 06:30:08;;;;;;;57.35;12.55;;;;;;;18.74;100.00;101772.78;5060766;28;20039;-85
2022/06/13 06:32:33;;;;;;;59.22;12.77;;;;;;;18.12;100.00;101766.88;5086288;28;20096;-86
2022/06/13 06:34:59;;;;;;;56.33;14.82;;;;;;;18.14;100.00;101787.00;5077411;28;20041;-84
2022/06/13 06:37:24;;;;;;;56.15;14.20;;;;;;;17.81;100.00;101791.94;5070567;28;20048;-85
2022/06/13 06:39:50;;;;;;;44.50;13.23;;;;;;;18.06;100.00;101784.09;5096125;28;20059;-84
2022/06/13 06:42:15;;;;;;;60.97;14.15;;;;;;;17.88;100.00;101795.91;5078502;28;20064;-84
2022/06/13 06:44:41;;;;;;;46.10;12.00;;;;;;;17.41;100.00;101793.81;5101684;28;20040;-85
2022/06/13 06:47:07;;;;;;;60.13;13.45;;;;;;;17.29;100.00;101803.25;5083371;28;20087;-85
2022/06/13 06:49:37;;;;;;;58.25;14.50;;;;;;;17.40;100.00;101814.19;5070983;28;20037;-85
2022/06/13 06:52:03;;;;;;;51.63;14.18;;;;;;;17.34;100.00;101802.81;5065545;28;20040;-85
2022/06/13 06:59:58;;;;;;;58.10;14.20;;;;;;;17.30;100.00;101820.72;5077518;28;20037;-85
2022/06/13 07:02:26;;;;;;;56.83;13.68;;;;;;;17.37;100.00;101819.16;5088901;28;20024;-85
2022/06/13 07:05:03;;;;;;;58.95;12.60;;;;;;;17.38;100.00;101819.00;5070868;28;20555;-85
2022/06/13 07:07:29;;;;;;;56.67;14.32;;;;;;;17.59;100.00;101810.59;5092711;28;20110;-84
2022/06/13 07:09:55;;;;;;;54.28;14.18;;;;;;;17.77;100.00;101820.94;5105254;28;20058;-87
2022/06/13 07:12:20;;;;;;;55.92;14.38;;;;;;;17.22;100.00;101797.41;5075034;28;20472;-87
2022/06/13 07:14:46;;;;;;;55.67;13.43;;;;;;;17.29;100.00;101819.84;5063634;28;20036;-86
2022/06/13 07:17:13;;;;;;;50.42;13.98;;;;;;;17.62;100.00;101826.91;5067260;28;20028;-87
2022/06/13 07:19:40;;;;;;;56.60;14.52;;;;;;;17.58;100.00;101822.69;5083393;28;20047;-87
2022/06/13 07:22:07;;;;;;;51.45;13.13;;;;;;;17.76;100.00;101831.16;5083904;28;20174;-87
2022/06/13 07:24:34;;;;;;;52.83;11.75;;;;;;;17.81;100.00;101826.06;5089995;28;20028;-87
2022/06/13 07:27:00;;;;;;;50.30;11.43;;;;;;;17.56;100.00;101834.91;5094819;28;20101;-87
2022/06/13 07:29:26;;;;;;;47.80;9.90;;;;;;;17.19;100.00;101838.34;5081822;28;20055;-87
2022/06/13 07:32:00;;;;;;;43.83;8.35;;;;;;;16.98;100.00;101838.41;5047423;28;20036;-84
2022/06/13 07:34:29;;;;;;;44.50;8.20;;;;;;;16.90;100.00;101839.09;5080748;28;20382;-84
2022/06/13 07:36:56;;;;;;;39.72;6.70;;;;;;;16.84;100.00;101846.03;5102130;28;20066;-84
2022/06/13 07:39:23;;;;;;;37.95;7.18;;;;;;;16.63;100.00;101846.06;5067483;28;20074;-82
2022/06/13 07:41:50;;;;;;;31.42;5.35;;;;;;;16.80;100.00;101843.66;5080687;28;20029;-84
2022/06/13 07:44:21;;;;;;;32.38;6.43;;;;;;;16.85;100.00;101841.41;5083555;28;20115;-83
2022/06/13 07:46:48;;;;;;;42.53;6.70;;;;;;;16.91;100.00;101851.91;5101710;28;20035;-83
2022/06/13 07:49:14;;;;;;;34.83;5.65;;;;;;;16.99;100.00;101852.09;5061046;28;20122;-83
2022/06/13 07:51:40;;;;;;;28.20;6.00;;;;;;;17.05;100.00;101846.00;5085006;28;20098;-84
2022/06/13 07:54:06;;;;;;;41.30;6.40;;;;;;;16.95;100.00;101852.50;5082779;28;20041;-83
2022/06/13 07:56:34;;;;;;;34.75;6.00;;;;;;;17.67;100.00;101856.94;5081340;28;20048;-85
2022/06/13 07:59:00;;;;;;;23.65;5.85;;;;;;;17.91;100.00;101864.88;5087185;28;20105;-84
2022/06/13 08:01:27;;;;;;;21.38;4.65;;;;;;;19.22;100.00;101855.00;5074720;28;20870;-84
2022/06/13 08:03:53;;;;;;;28.80;5.20;;;;;;;20.08;100.00;101866.75;5083115;28;20028;-85
2022/06/13 08:06:20;;;;;;;30.45;5.32;;;;;;;19.81;97.40;101860.25;5084526;28;20056;-83
2022/06/13 08:08:46;;;;;;;39.67;6.25;;;;;;;20.07;96.98;101871.44;5048460;28;20077;-84
2022/06/13 08:11:17;;;;;;;23.08;5.32;;;;;;;19.64;99.54;101873.94;5063765;28;20035;-84
2022/06/13 08:13:43;;;;;;;26.90;4.75;;;;;;;20.42;92.74;101866.00;5067021;28;20148;-86
2022/06/13 08:16:10;;;;;;;33.75;5.60;;;;;;;20.21;95.93;101875.56;5081553;28;20032;-84
2022/06/13 08:18:36;;;;;;;26.65;4.53;;;;;;;20.95;87.52;101870.56;5070413;28;20361;-83
2022/06/13 08:21:02;;;;;;;27.10;5.22;;;;;;;21.07;86.41;101866.47;5063409;28;20051;-83
2022/06/13 08:23:28;;;;;;;25.17;3.97;;;;;;;20.35;91.43;101874.13;5063666;28;20555;-83
2022/06/13 08:25:53;;;;;;;26.60;4.57;;;;;;;20.13;89.52;101878.25;5081804;28;20067;-82
2022/06/13 08:28:19;;;;;;;31.70;4.55;;;;;;;20.02;90.88;101877.47;5063044;28;20541;-82
2022/06/13 08:30:50;;;;;;;31.90;4.57;;;;;;;20.04;94.07;101887.53;5081150;28;20029;-83
2022/06/13 08:33:17;;;;;;;29.98;4.35;;;;;;;20.30;87.99;101880.16;5091442;28;20029;-84
2022/06/13 08:35:43;;;;;;;32.70;4.15;;;;;;;20.91;88.08;101883.09;5088490;28;20071;-83
2022/06/13 08:38:09;;;;;;;30.95;4.50;;;;;;;21.26;86.45;101875.63;5071605;28;20036;-84
2022/06/13 08:40:59;;;;;;;25.17;4.03;;;;;;;21.50;86.58;101891.59;5065439;28;20112;-84
2022/06/13 08:43:40;;;;;;;29.40;4.35;;;;;;;21.62;82.04;101892.16;5081483;28;20048;-83
2022/06/13 08:46:16;;;;;;;19.63;4.05;;;;;;;21.78;82.38;101894.13;5097892;28;20058;-84
2022/06/13 08:48:44;;;;;;;27.70;4.93;;;;;;;21.63;83.54;101892.00;5080429;28;20155;-85
2022/06/13 08:51:13;;;;;;;25.30;4.57;;;;;;;21.58;83.05;101890.75;5062988;28;20233;-85
2022/06/13 08:53:50;;;;;;;18.58;4.32;;;;;;;20.64;84.46;101889.69;5080368;28;20029;-84
2022/06/13 08:56:19;;;;;;;36.33;4.40;;;;;;;19.95;87.63;101890.25;5063888;28;20144;-82
2022/06/13 08:58:54;;;;;;;29.58;4.57;;;;;;;19.44;88.57;101888.94;5100381;28;20056;-82
2022/06/13 09:01:30;;;;;;;24.98;4.03;;;;;;;19.01;94.37;101890.47;5101308;28;20024;-83
2022/06/13 09:04:21;;;;;;;25.02;4.90;;;;;;;18.89;94.95;101906.44;5095522;28;20025;-82
2022/06/13 09:06:57;;;;;;;26.20;4.32;;;;;;;19.15;98.28;101908.50;5079912;28;20032;-82
2022/06/13 09:09:41;;;;;;;23.02;4.20;;;;;;;18.86;95.72;101896.50;5084726;28;20060;-83
2022/06/13 09:12:10;;;;;;;23.17;4.38;;;;;;;18.77;97.15;101891.78;5062435;28;20036;-82
2022/06/13 09:14:46;;;;;;;36.33;5.35;;;;;;;19.48;96.76;101909.84;5080556;28;20028;-82
2022/06/13 09:17:33;;;;;;;27.95;4.15;;;;;;;19.34;95.89;101913.13;5068906;28;20127;-83
2022/06/13 09:20:07;;;;;;;24.08;4.45;;;;;;;20.17;95.56;101919.50;5062921;28;20096;-83
2022/06/13 09:23:03;;;;;;;21.08;4.32;;;;;;;21.21;85.00;101917.03;5080071;28;20036;-83
2022/06/13 09:25:51;;;;;;;24.80;3.78;;;;;;;21.63;79.83;101919.00;5065257;28;20104;-84
2022/06/13 09:28:55;;;;;;;16.63;3.97;;;;;;;21.55;77.44;101925.41;5083908;28;20464;-83
2022/06/13 09:31:26;;;;;;;22.25;3.38;;;;;;;21.18;79.89;101921.00;5098994;28;20052;-82
2022/06/13 09:34:12;;;;;;;19.27;3.85;;;;;;;21.88;77.08;101919.94;5078866;28;20064;-83
2022/06/13 09:36:52;;;;;;;17.40;3.45;;;;;;;21.58;79.53;101919.50;5078662;28;20113;-81
2022/06/13 09:39:18;;;;;;;20.13;3.10;;;;;;;21.52;78.01;101922.09;5083055;28;20028;-82
2022/06/13 09:42:01;;;;;;;17.67;2.78;;;;;;;22.26;71.51;101922.28;5081802;28;20035;-83
2022/06/13 09:45:00;;;;;;;13.93;3.38;;;;;;;20.82;77.88;101925.81;5099624;28;20082;-83
2022/06/13 09:47:31;;;;;;;9.57;2.88;;;;;;;20.09;78.64;101924.13;5092818;28;20483;-85
2022/06/13 09:50:13;;;;;;;15.75;3.05;;;;;;;20.06;81.76;101932.78;5098866;28;20032;-84
2022/06/13 09:52:51;;;;;;;10.65;2.92;;;;;;;20.07;84.49;101938.19;5099671;28;20028;-84
2022/06/13 09:55:33;;;;;;;20.92;2.67;;;;;;;19.51;84.76;101934.50;5081070;28;20040;-86
2022/06/13 09:58:05;;;;;;;;;;;;;;;19.77;87.11;101939.38;5063380;28;20021;-86
2022/06/13 10:00:48;;;;;;;10.90;2.08;;;;;;;19.61;84.50;101940.91;5082769;28;20002;-86
2022/06/13 10:03:49;;;;;;;16.20;2.55;;;;;;;20.33;84.40;101942.94;5089695;28;20028;-85
2022/06/13 10:06:26;;;;;;;15.80;2.40;;;;;;;19.61;85.16;101931.69;5075336;28;20044;-86
2022/06/13 10:09:24;;;;;;;12.95;2.40;;;;;;;20.73;80.88;101931.34;5075547;28;20054;-86
2022/06/13 10:11:59;;;;;;;10.88;1.88;;;;;;;20.59;82.19;101939.34;5086921;28;20468;-85
2022/06/13 10:14:30;;;;;;;15.05;2.40;;;;;;;20.45;82.20;101936.13;5085040;28;20028;-85
2022/06/13 10:17:38;;;;;;;21.10;2.38;;;;;;;20.11;83.46;101938.72;5078325;28;20040;-86
2022/06/13 10:20:41;;;;;;;11.43;2.13;;;;;;;19.93;82.50;101938.72;5079582;28;20070;-86
2022/06/13 10:23:27;;;;;;;13.75;2.13;;;;;;;20.53;81.05;101938.09;5078722;28;20028;-84
2022/06/13 10:26:11;;;;;;;10.73;2.10;;;;;;;20.91;78.83;101941.56;5081822;28;20060;-86
2022/06/13 10:29:11;;;;;;;21.50;2.35;;;;;;;20.04;82.70;101944.06;5079097;28;20116;-86
2022/06/13 10:32:12;;;;;;;11.90;1.63;;;;;;;19.49;82.73;101958.81;5079796;28;20028;-86
2022/06/13 10:35:02;;;;;;;10.15;1.50;;;;;;;19.46;81.82;101943.34;5074585;28;20048;-86
2022/06/13 10:37:37;;;;;;;13.40;2.08;;;;;;;20.90;76.48;101945.38;5076771;28;20044;-85
2022/06/13 10:40:05;;;;;;;12.65;1.83;;;;;;;22.13;71.72;101928.38;5091031;28;20494;-86
2022/06/13 10:42:33;;;;;;;8.48;1.27;;;;;;;21.77;72.75;101954.59;5101938;28;20036;-85
2022/06/13 10:45:00;;;;;;;14.27;3.22;;;;;;;22.38;66.78;101952.53;5086664;28;20035;-85
2022/06/13 10:47:53;;;;;;;8.32;2.47;;;;;;;21.71;69.08;101949.72;5071606;28;20063;-85
2022/06/13 10:50:32;;;;;;;17.75;2.58;;;;;;;21.59;67.06;101957.47;5091754;28;20440;-86
2022/06/13 10:53:01;;;;;;;11.70;1.90;;;;;;;20.70;70.44;101959.47;5094095;28;20025;-85
2022/06/13 10:55:33;;;;;;;9.65;2.05;;;;;;;20.19;74.22;101974.97;5092338;28;20387;-85
2022/06/13 10:58:06;;;;;;;11.48;1.63;;;;;;;19.95;76.50;101950.53;5097290;28;20567;-86
2022/06/13 11:00:32;;;;;;;11.05;1.63;;;;;;;19.77;79.95;101969.97;5082986;28;20059;-85
2022/06/13 11:03:14;;;;;;;7.53;1.80;;;;;;;19.60;80.58;101957.75;5091469;28;20032;-83
2022/06/13 11:05:55;;;;;;;12.95;1.90;;;;;;;19.85;78.52;101966.41;5092698;28;20028;-83
2022/06/13 11:08:22;;;;;;;14.65;2.75;;;;;;;21.17;73.65;101960.16;5082522;28;20430;-84
2022/06/13 11:10:52;;;;;;;13.07;1.95;;;;;;;20.88;72.59;101959.44;5082874;28;20042;-84
2022/06/13 11:13:36;;;;;;;17.98;1.55;;;;;;;20.18;74.79;101964.88;5085042;28;20484;-86
2022/06/13 11:22:38;;;;;;;12.35;2.30;;;;;;;21.63;67.08;101960.81;5114888;28;20170;-87
2022/06/13 11:25:11;;;;;;;13.13;1.60;;;;;;;21.60;67.34;101963.94;5093396;28;20028;-86
2022/06/13 11:27:41;;;;;;;8.07;1.67;;;;;;;21.71;68.00;101966.44;5081039;28;20064;-84
2022/06/13 11:30:19;;;;;;;8.10;1.30;;;;;;;22.03;66.25;101971.22;5083733;28;20029;-85
2022/06/13 11:33:09;;;;;;;9.18;1.50;;;;;;;21.71;63.89;101971.13;5099166;28;20100;-85
2022/06/13 11:35:42;;;;;;;6.25;1.25;;;;;;;21.87;64.99;101968.38;5081325;28;20040;-85
2022/06/13 11:38:24;;;;;;;6.00;1.45;;;;;;;22.03;62.39;101953.63;5078533;28;20024;-85
2022/06/13 11:41:22;;;;;;;11.13;1.70;;;;;;;21.70;64.17;101967.47;5072361;28;20499;-84
2022/06/13 11:43:53;;;;;;;7.32;1.30;;;;;;;22.08;62.38;101956.78;5084202;28;20025;-84
2022/06/13 11:46:31;;;;;;;7.25;1.40;;;;;;;21.39;64.65;101961.53;5084416;28;20036;-84
2022/06/13 11:49:02;;;;;;;15.13;1.75;;;;;;;21.46;65.31;101952.34;5064115;28;20041;-84
2022/06/13 11:52:11;;;;;;;10.07;1.60;;;;;;;21.40;67.78;101958.59;5080855;28;20032;-84